Time;durP1;ratioP1;P1;durP2;ratioP2;P2;SDS_P1;SDS_P2;PMS_P1;PMS_P2;Temp;Humidity;BMP_temperature;BMP_pressure;BME280_temperature;BME280_humidity;BME280_pressure;Samples;Min_cycle;Max_cycle;Signal;HPM_P1;HPM_P2
2022/10/04 00:02:19;;;;;;;;;;;;;;;-144.99;100.00;52423.63;5068827;28;19925;-75
2022/10/04 00:04:48;;;;;;;;;;;;;;;-144.99;100.00;52468.47;5069953;28;19929;-77
2022/10/04 00:07:17;;;;;;;;;;;;;;;-144.99;100.00;52501.09;5070438;28;19951;-76
2022/10/04 00:09:46;;;;;;;;;;;;;;;-144.99;100.00;52452.16;5085068;22;19925;-72
2022/10/04 00:12:18;;;;;;;;;;;;;;;-144.99;100.00;52492.94;5060315;28;19935;-73
2022/10/04 00:14:45;;;;;;;;;;;;;;;-144.99;100.00;52476.63;5066260;28;19925;-73
2022/10/04 00:17:13;;;;;;;;;;;;;;;-144.99;100.00;52464.41;5076220;28;19924;-73
2022/10/04 00:19:41;;;;;;;;;;;;;;;-144.99;100.00;52488.84;5078007;28;19924;-73
2022/10/04 00:22:18;;;;;;;;;;;;;;;-144.99;100.00;52484.78;5056031;28;19947;-74
2022/10/04 00:25:20;;;;;;;;;;;;;;;-144.99;100.00;52484.78;5053528;28;20285;-73
2022/10/04 00:28:05;;;;;;;;;;;;;;;-144.99;100.00;52488.84;5053564;28;19924;-74
2022/10/04 00:30:37;;;;;;;;;;;;;;;-144.99;100.00;52423.63;5046367;28;19956;-74
2022/10/04 00:33:04;;;;;;;;;;;;;;;-144.99;100.00;52505.16;5039715;28;19925;-74
2022/10/04 00:35:48;;;;;;;;;;;;;;;-144.99;100.00;52446.06;5053802;28;19931;-74
2022/10/04 00:38:15;;;;;;;;;;;;;;;-144.99;100.00;52497.00;5054989;28;20302;-73
2022/10/04 00:40:45;;;;;;;;;;;;;;;-144.99;100.00;52456.25;5051109;28;19948;-74
2022/10/04 00:43:15;;;;;;;;;;;;;;;-144.99;100.00;52437.91;5056410;28;19925;-74
2022/10/04 00:45:45;;;;;;;;;;;;;;;-144.99;100.00;52446.06;5043885;28;20293;-73
2022/10/04 00:48:29;;;;;;;;;;;;;;;-144.99;100.00;52456.25;5056969;28;19924;-73
2022/10/04 00:50:58;;;;;;;;;;;;;;;-144.99;100.00;52460.31;5047032;28;20289;-73
2022/10/04 00:53:34;;;;;;;;;;;;;;;-144.99;100.00;52480.72;5052277;28;19928;-73
2022/10/04 00:56:02;;;;;;;;;;;;;;;-144.99;100.00;52456.25;5051778;28;19937;-73
2022/10/04 00:58:30;;;;;;;;;;;;;;;-144.99;100.00;52448.09;5051431;28;19925;-74
2022/10/04 01:00:58;;;;;;;;;;;;;;;-144.99;100.00;52497.00;5054443;28;20261;-74
2022/10/04 01:03:29;;;;;;;;;;;;;;;-144.99;100.00;52450.13;5040208;28;20311;-73
2022/10/04 01:05:58;;;;;;;;;;;;;;;-144.99;100.00;52464.41;5045844;28;19924;-74
2022/10/04 01:08:27;;;;;;;;;;;;;;;-144.99;100.00;52441.97;5053682;28;20423;-74
2022/10/04 01:10:56;;;;;;;;;;;;;;;-144.99;100.00;52476.63;5051947;28;20427;-73
2022/10/04 01:13:25;;;;;;;;;;;;;;;-144.99;100.00;52468.47;5052021;28;20226;-73
2022/10/04 01:15:54;;;;;;;;;;;;;;;-144.99;100.00;52484.78;5051563;28;19928;-73
2022/10/04 01:18:32;;;;;;;;;;;;;;;-144.99;100.00;52427.72;5056354;28;19948;-73
2022/10/04 01:21:02;;;;;;;;;;;;;;;-144.99;100.00;52476.63;5053460;28;19925;-72
2022/10/04 01:23:34;;;;;;;;;;;;;;;-144.99;100.00;52460.31;5049669;28;19936;-75
2022/10/04 01:26:03;;;;;;;;;;;;;;;-144.99;100.00;52511.28;5052181;28;19936;-74
2022/10/04 01:28:29;;;;;;;;;;;;;;;-144.99;100.00;52480.72;5055289;28;19928;-74
2022/10/04 01:30:55;;;;;;;;;;;;;;;-144.99;100.00;52448.09;5048287;28;20411;-73
2022/10/04 01:33:22;;;;;;;;;;;;;;;-144.99;100.00;52513.31;5049710;28;19936;-73
2022/10/04 01:35:48;;;;;;;;;;;;;;;-144.99;100.00;52484.78;5057520;28;19932;-73
2022/10/04 01:38:14;;;;;;;;;;;;;;;-144.99;100.00;52464.41;5055397;28;19940;-74
2022/10/04 01:40:45;;;;;;;;;;;;;;;-144.99;100.00;52497.00;5054117;28;19924;-75
2022/10/04 01:43:14;;;;;;;;;;;;;;;-144.99;100.00;52466.44;5068929;28;19944;-74
2022/10/04 01:45:43;;;;;;;;;;;;;;;-144.99;100.00;52468.47;5067436;28;19925;-75
2022/10/04 01:48:12;;;;;;;;;;;;;;;-144.99;100.00;52478.66;5067122;28;19931;-74
2022/10/04 01:50:41;;;;;;;;;;;;;;;-144.99;100.00;52484.78;5051949;28;19935;-74
2022/10/04 01:53:13;;;;;;;;;;;;;;;-144.99;100.00;52456.25;5056136;28;19931;-74
2022/10/04 01:55:41;;;;;;;;;;;;;;;-144.99;100.00;52472.56;5062182;28;19931;-74
2022/10/04 01:58:11;;;;;;;;;;;;;;;-144.99;100.00;52503.13;5050202;28;20027;-75
2022/10/04 02:00:40;;;;;;;;;;;;;;;-144.99;100.00;52482.75;5048767;28;19924;-76
2022/10/04 02:03:11;;;;;;;;;;;;;;;-144.99;100.00;52492.94;5051470;28;20312;-75
2022/10/04 02:05:41;;;;;;;;;;;;;;;-144.99;100.00;52448.09;5045223;28;19929;-75
2022/10/04 02:08:10;;;;;;;;;;;;;;;-144.99;100.00;52472.56;5046177;28;20011;-74
2022/10/04 02:10:38;;;;;;;;;;;;;;;-144.99;100.00;52480.72;5053642;28;19929;-73
2022/10/04 02:13:08;;;;;;;;;;;;;;;-144.99;100.00;52460.31;5050443;28;19960;-74
2022/10/04 02:15:38;;;;;;;;;;;;;;;-144.99;100.00;52427.72;5048922;28;19931;-74
2022/10/04 02:18:10;;;;;;;;;;;;;;;-144.99;100.00;52464.41;5050944;28;19925;-72
2022/10/04 02:20:39;;;;;;;;;;;;;;;-144.99;100.00;52423.63;5050649;28;19925;-73
2022/10/04 02:23:06;;;;;;;;;;;;;;;-144.99;100.00;52456.25;5048299;28;19925;-73
2022/10/04 02:25:32;;;;;;;;;;;;;;;-144.99;100.00;52505.16;5046155;28;19952;-74
2022/10/04 02:27:59;;;;;;;;;;;;;;;-144.99;100.00;52456.25;5054534;28;19932;-74
2022/10/04 02:30:25;;;;;;;;;;;;;;;-144.99;100.00;52460.31;5048676;28;19931;-75
2022/10/04 02:32:56;;;;;;;;;;;;;;;-144.99;100.00;52448.09;5042040;28;19932;-74
2022/10/04 02:35:23;;;;;;;;;;;;;;;-144.99;100.00;52476.63;5057178;28;19972;-75
2022/10/04 02:37:53;;;;;;;;;;;;;;;-144.99;100.00;52458.28;5054431;28;19978;-75
2022/10/04 02:40:22;;;;;;;;;;;;;;;-144.99;100.00;52448.09;5056923;28;20644;-75
2022/10/04 02:42:51;;;;;;;;;;;;;;;-144.99;100.00;52497.00;5058361;28;19924;-75
2022/10/04 02:45:19;;;;;;;;;;;;;;;-144.99;100.00;52501.09;5045937;28;19925;-75
2022/10/04 02:47:47;;;;;;;;;;;;;;;-144.99;100.00;52427.72;5059340;28;20417;-75
2022/10/04 02:50:21;;;;;;;;;;;;;;;-144.99;100.00;52476.63;5054534;28;19925;-75
2022/10/04 02:52:50;;;;;;;;;;;;;;;-144.99;100.00;52462.34;5048847;28;19925;-74
2022/10/04 02:55:20;;;;;;;;;;;;;;;-144.99;100.00;52456.25;5053700;28;20046;-75
2022/10/04 02:57:48;;;;;;;;;;;;;;;-144.99;100.00;52521.47;5054414;28;19936;-75
2022/10/04 03:00:18;;;;;;;;;;;;;;;-144.99;100.00;52480.72;5051267;28;19956;-73
2022/10/04 03:03:00;;;;;;;;;;;;;;;-144.99;100.00;52480.72;5057319;28;19928;-74
2022/10/04 03:05:28;;;;;;;;;;;;;;;-144.99;100.00;52448.09;5057938;28;19925;-74
2022/10/04 03:07:55;;;;;;;;;;;;;;;-144.99;100.00;52427.72;5055994;28;19933;-74
2022/10/04 03:10:21;;;;;;;;;;;;;;;-144.99;100.00;52456.25;5050293;28;19995;-75
2022/10/04 03:12:49;;;;;;;;;;;;;;;-144.99;100.00;52488.84;5054967;28;19932;-74
2022/10/04 03:15:16;;;;;;;;;;;;;;;-144.99;100.00;52466.44;5056466;28;19932;-75
2022/10/04 03:17:43;;;;;;;;;;;;;;;-144.99;100.00;52452.16;5059524;28;19925;-74
2022/10/04 03:20:11;;;;;;;;;;;;;;;-144.99;100.00;52458.28;5057450;28;19931;-75
2022/10/04 03:22:38;;;;;;;;;;;;;;;-144.99;100.00;52497.00;5050703;28;19933;-75
2022/10/04 03:25:05;;;;;;;;;;;;;;;-144.99;100.00;52468.47;5064579;28;19925;-76
2022/10/04 03:27:34;;;;;;;;;;;;;;;-144.99;100.00;52448.09;5062666;28;19929;-74
2022/10/04 03:30:01;;;;;;;;;;;;;;;-144.99;100.00;52439.94;5060714;28;19928;-74
2022/10/04 03:32:29;;;;;;;;;;;;;;;-144.99;100.00;52462.34;5048069;28;19929;-75
2022/10/04 03:34:57;;;;;;;;;;;;;;;-144.99;100.00;52488.84;5063276;28;19925;-76
2022/10/04 03:37:25;;;;;;;;;;;;;;;-144.99;100.00;52466.44;5063197;28;19935;-75
2022/10/04 03:39:53;;;;;;;;;;;;;;;-144.99;100.00;52448.09;5055799;28;20398;-76
2022/10/04 03:42:21;;;;;;;;;;;;;;;-144.99;100.00;52478.66;5057553;28;19955;-75
2022/10/04 03:44:49;;;;;;;;;;;;;;;-144.99;100.00;52448.09;5066683;28;19952;-76
2022/10/04 03:47:17;;;;;;;;;;;;;;;-144.99;100.00;52484.78;5067750;28;19931;-76
2022/10/04 03:49:44;;;;;;;;;;;;;;;-144.99;100.00;52439.94;5059285;28;20004;-76
2022/10/04 03:52:16;;;;;;;;;;;;;;;-144.99;100.00;52419.56;5059255;28;19931;-76
2022/10/04 03:54:43;;;;;;;;;;;;;;;-144.99;100.00;52468.47;5072169;28;19947;-76
2022/10/04 03:57:11;;;;;;;;;;;;;;;-144.99;100.00;52468.47;5066875;28;19924;-76
2022/10/04 03:59:37;;;;;;;;;;;;;;;-144.99;100.00;52456.25;5057507;28;20008;-75
2022/10/04 04:02:09;;;;;;;;;;;;;;;-144.99;100.00;52437.91;5066922;28;19929;-74
2022/10/04 04:04:40;;;;;;;;;;;;;;;-144.99;100.00;52444.03;5067839;28;19924;-74
2022/10/04 04:07:11;;;;;;;;;;;;;;;-144.99;100.00;52460.31;5056259;28;19960;-74
2022/10/04 04:09:40;;;;;;;;;;;;;;;-144.99;100.00;52476.63;5066863;28;19928;-74
2022/10/04 04:12:13;;;;;;;;;;;;;;;-144.99;100.00;52456.25;5066405;28;19932;-74
2022/10/04 04:14:41;;;;;;;;;;;;;;;-144.99;100.00;52480.72;5065434;28;19984;-75
2022/10/04 04:17:18;;;;;;;;;;;;;;;-144.99;100.00;52444.03;5054163;28;20024;-74
2022/10/04 04:19:46;;;;;;;;;;;;;;;-144.99;100.00;52460.31;5058705;28;19924;-75
2022/10/04 04:22:16;;;;;;;;;;;;;;;-144.99;100.00;52482.75;5048959;28;19929;-75
2022/10/04 04:24:43;;;;;;;;;;;;;;;-144.99;100.00;52456.25;5059509;28;19925;-75
2022/10/04 04:27:11;;;;;;;;;;;;;;;-144.99;100.00;52480.72;5058654;28;19925;-75
2022/10/04 04:29:44;;;;;;;;;;;;;;;-144.99;100.00;52439.94;5056633;28;19935;-75
2022/10/04 04:32:13;;;;;;;;;;;;;;;-144.99;100.00;52492.94;5059625;28;19929;-74
2022/10/04 04:34:48;;;;;;;;;;;;;;;-144.99;100.00;52448.09;5046277;28;19933;-74
2022/10/04 04:37:15;;;;;;;;;;;;;;;-144.99;100.00;52482.75;5061376;28;19931;-74
2022/10/04 04:39:43;;;;;;;;;;;;;;;-144.99;100.00;52509.25;5061578;28;19925;-74
2022/10/04 04:42:14;;;;;;;;;;;;;;;-144.99;100.00;52476.63;5050615;28;19947;-74
2022/10/04 04:44:46;;;;;;;;;;;;;;;-144.99;100.00;52462.34;5055465;28;19931;-73
2022/10/04 04:47:20;;;;;;;;;;;;;;;-144.99;100.00;52472.56;5052125;28;19928;-74
2022/10/04 04:49:46;;;;;;;;;;;;;;;-144.99;100.00;52460.31;5050065;28;19925;-75
2022/10/04 04:52:16;;;;;;;;;;;;;;;-144.99;100.00;52435.88;5043196;28;19931;-75
2022/10/04 04:54:45;;;;;;;;;;;;;;;-144.99;100.00;52501.09;5043642;28;19925;-73
2022/10/04 04:57:15;;;;;;;;;;;;;;;-144.99;100.00;52456.25;5053761;28;19932;-74
2022/10/04 04:59:45;;;;;;;;;;;;;;;-144.99;100.00;52460.31;5042862;28;19926;-74
2022/10/04 05:02:26;;;;;;;;;;;;;;;-144.99;100.00;52464.41;5059187;28;19925;-75
2022/10/04 05:05:07;;;;;;;;;;;;;;;-144.99;100.00;52437.91;5062751;28;19980;-74
2022/10/04 05:07:34;;;;;;;;;;;;;;;-144.99;100.00;52480.72;5064711;28;19933;-75
2022/10/04 05:10:00;;;;;;;;;;;;;;;-144.99;100.00;52429.75;5053297;28;20059;-74
2022/10/04 05:12:28;;;;;;;;;;;;;;;-144.99;100.00;52468.47;5057784;28;19931;-74
2022/10/04 05:14:56;;;;;;;;;;;;;;;-144.99;100.00;52462.34;5063238;28;20449;-74
2022/10/04 05:17:24;;;;;;;;;;;;;;;-144.99;100.00;52456.25;5056783;28;19925;-74
2022/10/04 05:19:52;;;;;;;;;;;;;;;-144.99;100.00;52462.34;5050962;28;19925;-72
2022/10/04 05:22:20;;;;;;;;;;;;;;;-144.99;100.00;52456.25;5052465;28;20307;-73
2022/10/04 05:24:50;;;;;;;;;;;;;;;-144.99;100.00;52476.63;5039163;28;19948;-73
2022/10/04 05:27:18;;;;;;;;;;;;;;;-144.99;100.00;52460.31;5057864;28;19932;-73
2022/10/04 05:29:54;;;;;;;;;;;;;;;-144.99;100.00;52452.16;5059255;28;19939;-73
2022/10/04 05:32:26;;;;;;;;;;;;;;;-144.99;100.00;52480.72;5049681;28;20015;-76
2022/10/04 05:34:53;;;;;;;;;;;;;;;-144.99;100.00;52460.31;5052571;28;19988;-73
2022/10/04 05:37:37;;;;;;;;;;;;;;;-144.99;100.00;52460.31;5057446;28;19956;-75
2022/10/04 05:40:09;;;;;;;;;;;;;;;-144.99;100.00;52460.31;5054041;28;19925;-75
2022/10/04 05:42:37;;;;;;;;;;;;;;;-144.99;100.00;52472.56;5059333;28;19931;-76
2022/10/04 05:45:11;;;;;;;;;;;;;;;-144.99;100.00;52437.91;5063569;28;19933;-76
2022/10/04 05:47:40;;;;;;;;;;;;;;;-144.99;100.00;52460.31;5053182;28;19925;-76
2022/10/04 05:50:14;;;;;;;;;;;;;;;-144.99;100.00;52468.47;5052370;28;19932;-75
2022/10/04 05:52:40;;;;;;;;;;;;;;;-144.99;100.00;52476.63;5054637;28;19952;-75
2022/10/04 05:55:18;;;;;;;;;;;;;;;-144.99;100.00;52444.03;5064307;28;19933;-75
2022/10/04 05:57:47;;;;;;;;;;;;;;;-144.99;100.00;52439.94;5062451;28;19925;-74
2022/10/04 06:00:17;;;;;;;;;;;;;;;-144.99;100.00;52458.28;5063343;28;20027;-74
2022/10/04 06:03:14;;;;;;;;;;;;;;;-144.99;100.00;52468.47;5060657;28;19935;-75
2022/10/04 06:05:44;;;;;;;;;;;;;;;-144.99;100.00;52480.72;4994432;28;19989;-74
2022/10/04 06:08:16;;;;;;;;;;;;;;;-144.99;100.00;52476.63;5042980;28;19925;-73
2022/10/04 06:10:52;;;;;;;;;;;;;;;-144.99;100.00;52472.56;5072690;22;19925;-72
2022/10/04 06:13:38;;;;;;;;;;;;;;;-144.99;100.00;52448.09;5038208;28;19924;-71
2022/10/04 06:16:13;;;;;;;;;;;;;;;-144.99;100.00;52460.31;5045110;28;19925;-73
2022/10/04 06:18:51;;;;;;;;;;;;;;;-144.99;100.00;52466.44;5048787;28;20414;-73
2022/10/04 06:21:21;;;;;;;;;;;;;;;-144.99;100.00;52448.09;5048455;28;19932;-72
2022/10/04 06:23:54;;;;;;;;;;;;;;;-144.99;100.00;52439.94;5044325;28;19925;-72
2022/10/04 06:26:23;;;;;;;;;;;;;;;-144.99;100.00;52456.25;5048616;28;19925;-72
2022/10/04 06:28:52;;;;;;;;;;;;;;;-144.99;100.00;52435.88;5042218;28;19925;-75
2022/10/04 06:31:40;;;;;;;;;;;;;;;-144.99;100.00;52444.03;5043094;28;19929;-75
2022/10/04 06:34:24;;;;;;;;;;;;;;;-144.99;100.00;52435.88;5037622;28;19929;-73
2022/10/04 06:37:08;;;;;;;;;;;;;;;-144.99;100.00;52427.72;5032411;28;20537;-72
2022/10/04 06:39:52;;;;;;;;;;;;;;;-144.99;100.00;52444.03;5049515;28;20118;-74
2022/10/04 06:42:32;;;;;;;;;;;;;;;-144.99;100.00;52391.03;5054933;28;19933;-73
2022/10/04 06:45:08;;;;;;;;;;;;;;;-144.99;100.00;52448.09;5073808;28;19929;-74
2022/10/04 06:47:45;;;;;;;;;;;;;;;-144.99;100.00;52468.47;5061584;28;19935;-75
2022/10/04 06:50:17;;;;;;;;;;;;;;;-144.99;100.00;52452.16;5044798;28;19932;-77
2022/10/04 06:52:50;;;;;;;;;;;;;;;-144.99;100.00;52444.03;5044821;28;19931;-74
2022/10/04 06:55:30;;;;;;;;;;;;;;;-144.99;100.00;52456.25;5056531;28;20495;-74
2022/10/04 06:58:11;;;;;;;;;;;;;;;-144.99;100.00;52452.16;5048842;28;19925;-73
2022/10/04 07:00:41;;;;;;;;;;;;;;;-144.99;100.00;52397.13;5049665;28;19924;-73
2022/10/04 07:03:13;;;;;;;;;;;;;;;-144.99;100.00;52421.59;5045837;28;20171;-74
2022/10/04 07:05:42;;;;;;;;;;;;;;;-144.99;100.00;52452.16;5048639;28;20414;-74
2022/10/04 07:08:12;;;;;;;;;;;;;;;-144.99;100.00;52456.25;5042866;28;19931;-73
2022/10/04 07:10:41;;;;;;;;;;;;;;;-144.99;100.00;52419.56;5050691;28;20387;-74
2022/10/04 07:13:13;;;;;;;;;;;;;;;-144.99;100.00;52464.41;5027306;28;20020;-73
2022/10/04 07:15:44;;;;;;;;;;;;;;;-144.99;100.00;52448.09;5035302;28;19929;-73
2022/10/04 07:18:15;;;;;;;;;;;;;;;-144.99;100.00;52468.47;5049341;28;20351;-72
2022/10/04 07:20:42;;;;;;;;;;;;;;;-144.99;100.00;52421.59;5049702;28;19932;-75
2022/10/04 07:23:14;;;;;;;;;;;;;;;-144.99;100.00;52419.56;5042688;28;20321;-75
2022/10/04 07:25:43;;;;;;;;;;;;;;;-144.99;100.00;52419.56;5048694;28;20442;-73
2022/10/04 07:31:02;;;;;;;;;;;;;;;-144.99;100.00;52456.25;5037029;28;20308;-74
2022/10/04 07:33:31;;;;;;;;;;;;;;;-144.99;100.00;52382.88;5048920;28;19925;-74
2022/10/04 07:36:05;;;;;;;;;;;;;;;-144.99;100.00;52417.53;5028768;28;19932;-74
2022/10/04 07:38:32;;;;;;;;;;;;;;;-144.99;100.00;52448.09;5037943;28;19955;-73
2022/10/04 07:41:03;;;;;;;;;;;;;;;-144.99;100.00;52435.88;5036378;28;20001;-74
2022/10/04 07:43:31;;;;;;;;;;;;;;;-144.99;100.00;52427.72;5032066;28;19999;-74
2022/10/04 07:46:02;;;;;;;;;;;;;;;-144.99;100.00;52382.88;5033707;28;19925;-75
2022/10/04 07:48:30;;;;;;;;;;;;;;;-144.99;100.00;52411.41;5031479;28;19933;-76
2022/10/04 07:51:00;;;;;;;;;;;;;;;-144.99;100.00;52456.25;5029007;28;19992;-74
2022/10/04 07:53:31;;;;;;;;;;;;;;;-144.99;100.00;52456.25;5025869;28;19929;-76
2022/10/04 07:56:01;;;;;;;;;;;;;;;-144.99;100.00;52444.03;5024289;28;19936;-76
2022/10/04 07:58:36;;;;;;;;;;;;;;;-144.99;100.00;52427.72;5029060;28;19925;-77
2022/10/04 08:01:05;;;;;;;;;;;;;;;-144.99;100.00;52374.72;5031320;28;20378;-77
2022/10/04 08:03:50;;;;;;;;;;;;;;;-144.99;100.00;52378.78;5034839;28;19944;-76
2022/10/04 08:06:19;;;;;;;;;;;;;;;-144.99;100.00;52386.94;5030081;28;19930;-77
2022/10/04 08:08:54;;;;;;;;;;;;;;;-144.99;100.00;52425.66;5032533;28;19925;-79
2022/10/04 08:11:26;;;;;;;;;;;;;;;-144.99;100.00;52425.66;5036852;28;19932;-76
2022/10/04 08:13:57;;;;;;;;;;;;;;;-144.99;100.00;52407.31;5035371;28;19935;-76
2022/10/04 08:16:32;;;;;;;;;;;;;;;-144.99;100.00;52407.31;5033494;28;19932;-78
2022/10/04 08:19:11;;;;;;;;;;;;;;;-144.99;100.00;52401.22;5032562;28;19988;-78
2022/10/04 08:21:42;;;;;;;;;;;;;;;-144.99;100.00;52386.94;5025421;28;20395;-76
2022/10/04 08:24:16;;;;;;;;;;;;;;;-144.99;100.00;52391.03;5038962;28;19925;-77
2022/10/04 08:26:53;;;;;;;;;;;;;;;-144.99;100.00;52439.94;5038707;28;19925;-77
2022/10/04 08:29:44;;;;;;;;;;;;;;;-144.99;100.00;52395.09;5038309;28;20009;-77
2022/10/04 08:32:22;;;;;;;;;;;;;;;-144.99;100.00;52395.09;5033230;28;19935;-77
2022/10/04 08:35:02;;;;;;;;;;;;;;;-144.99;100.00;52399.19;5048250;28;19932;-77
2022/10/04 08:37:35;;;;;;;;;;;;;;;-144.99;100.00;52407.31;5056897;28;19968;-77
2022/10/04 08:40:18;;;;;;;;;;;;;;;-144.99;100.00;52427.72;5047294;28;19936;-77
2022/10/04 08:43:10;;;;;;;;;;;;;;;-144.99;100.00;52386.94;5033234;28;20463;-76
2022/10/04 08:45:57;;;;;;;;;;;;;;;-144.99;100.00;52413.44;5039184;28;19928;-78
2022/10/04 08:48:45;;;;;;;;;;;;;;;-144.99;100.00;52388.97;5033341;28;19939;-78
2022/10/04 08:51:30;;;;;;;;;;;;;;;-144.99;100.00;52391.03;5030494;28;19925;-75
2022/10/04 08:54:26;;;;;;;;;;;;;;;-144.99;100.00;52386.94;5025439;28;19971;-76
2022/10/04 08:57:07;;;;;;;;;;;;;;;-144.99;100.00;52415.47;5028177;28;20381;-76
2022/10/04 08:59:50;;;;;;;;;;;;;;;-144.99;100.00;52409.38;5027954;28;19935;-77
2022/10/04 09:02:33;;;;;;;;;;;;;;;-144.99;100.00;52391.03;5029041;28;20552;-77
2022/10/04 09:05:14;;;;;;;;;;;;;;;-144.99;100.00;52411.41;5030099;28;19926;-76
2022/10/04 09:08:03;;;;;;;;;;;;;;;-144.99;98.31;52374.72;5030649;28;20065;-77
2022/10/04 09:10:38;;;;;;;;;;;;;;;-144.99;97.27;52415.47;5027916;28;19925;-77
2022/10/04 09:13:15;;;;;;;;;;;;;;;-144.99;97.38;52380.84;5034064;28;19940;-78
2022/10/04 09:15:51;;;;;;;;;;;;;;;-144.99;97.47;52419.56;5033009;28;19929;-78
2022/10/04 09:18:22;;;;;;;;;;;;;;;-144.99;96.85;52382.88;5033783;28;19925;-77
2022/10/04 09:20:56;;;;;;;;;;;;;;;-144.99;96.32;52378.78;5033284;28;20505;-78
2022/10/04 09:23:41;;;;;;;;;;;;;;;-144.99;95.84;52407.31;5029290;28;19932;-79
2022/10/04 09:26:19;;;;;;;;;;;;;;;-144.99;95.44;52407.31;5036246;28;19924;-77
2022/10/04 09:29:01;;;;;;;;;;;;;;;-144.99;94.82;52391.03;5034311;28;19925;-78
2022/10/04 09:31:43;;;;;;;;;;;;;;;-144.99;94.93;52419.56;5034266;28;19948;-75
2022/10/04 09:34:22;;;;;;;;;;;;;;;-144.99;93.32;52407.31;5001865;28;19964;-77
2022/10/04 09:36:58;;;;;;;;;;;;;;;-144.99;93.75;52378.78;5039880;28;19935;-77
2022/10/04 09:39:38;;;;;;;;;;;;;;;-144.99;92.47;52380.84;5030572;28;19929;-78
2022/10/04 09:42:13;;;;;;;;;;;;;;;-144.99;90.91;52382.88;5039233;28;19926;-77
2022/10/04 09:44:52;;;;;;;;;;;;;;;-144.99;91.07;52388.97;5033918;28;19929;-77
2022/10/04 09:47:36;;;;;;;;;;;;;;;-144.99;90.91;52386.94;5028414;28;20354;-76
2022/10/04 09:50:25;;;;;;;;;;;;;;;-144.99;89.05;52393.06;5025581;28;19926;-77
2022/10/04 09:52:57;;;;;;;;;;;;;;;-144.99;89.09;52360.44;5026374;28;19995;-78
2022/10/04 09:55:42;;;;;;;;;;;;;;;-144.99;88.53;52391.03;5034886;28;19925;-77
2022/10/04 09:58:28;;;;;;;;;;;;;;;-144.99;86.63;52399.19;5051169;28;20051;-76
2022/10/04 10:00:59;;;;;;;;;;;;;;;-144.99;84.77;52366.56;5043025;28;19926;-77
2022/10/04 10:03:46;;;;;;;;;;;;;;;-144.99;84.75;52384.91;5043185;28;19964;-77
2022/10/04 10:06:22;;;;;;;;;;;;;;;-144.99;82.66;52370.63;5050036;28;19931;-77
2022/10/04 10:08:57;;;;;;;;;;;;;;;-144.99;81.61;52356.38;5051371;28;19948;-76
2022/10/04 10:14:21;;;;;;;;;;;;;;;-144.99;76.36;52266.69;5050430;28;19975;-76
2022/10/04 10:16:59;;;;;;;;;;;;;;;-144.99;68.51;52240.19;5048036;28;19925;-76
2022/10/04 10:19:40;;;;;;;;;;;;;;;-144.99;59.28;52207.59;5052203;28;19936;-78
2022/10/04 10:22:17;;;;;;;;;;;;;;;-144.99;55.74;52199.44;5054274;28;19976;-77
2022/10/04 10:25:03;;;;;;;;;;;;;;;-144.99;52.49;52138.28;5054017;28;19964;-76
2022/10/04 10:27:49;;;;;;;;;;;;;;;-144.99;48.67;52134.22;5049865;28;20020;-77
2022/10/04 10:30:21;;;;;;;;;;;;;;;-144.99;46.35;52117.91;5041936;28;19985;-77
2022/10/04 10:33:00;;;;;;;;;;;;;;;-144.99;45.95;52081.22;5066195;28;19919;-76
2022/10/04 10:35:31;;;;;;;;;;;;;;;-144.99;44.14;52134.22;5059272;28;19925;-78
2022/10/04 10:38:18;;;;;;;;;;;;;;;-144.99;42.93;52085.31;5047492;28;19952;-76
2022/10/04 10:40:58;;;;;;;;;;;;;;;-144.99;41.89;52077.16;5035667;28;19925;-76
2022/10/04 10:43:35;;;;;;;;;;;;;;;-144.99;41.62;52085.31;5031158;28;19925;-76
2022/10/04 10:46:26;;;;;;;;;;;;;;;-144.99;41.51;52073.06;5032718;28;19925;-76
2022/10/04 10:49:04;;;;;;;;;;;;;;;-144.99;41.44;52081.22;5033638;28;20055;-76
2022/10/04 10:51:40;;;;;;;;;;;;;;;-144.99;41.70;52121.97;5034696;28;19964;-76
2022/10/04 10:54:29;;;;;;;;;;;;;;;-144.99;41.80;52130.13;5044298;28;19931;-78
2022/10/04 10:56:59;;;;;;;;;;;;;;;-144.99;42.91;52109.75;5041004;28;19929;-76
2022/10/04 10:59:39;;;;;;;;;;;;;;;-144.99;42.17;52073.06;5040792;28;19925;-77
2022/10/04 11:02:23;;;;;;;;;;;;;;;-144.99;41.46;52089.38;5047850;28;19932;-77
2022/10/04 11:04:57;;;;;;;;;;;;;;;-144.99;40.81;52058.81;5045908;28;19929;-75
2022/10/04 11:07:37;;;;;;;;;;;;;;;-144.99;40.49;52107.72;5046135;28;19932;-77
2022/10/04 11:10:18;;;;;;;;;;;;;;;-144.99;41.47;52117.91;5042688;28;19925;-77
2022/10/04 11:12:55;;;;;;;;;;;;;;;-144.99;40.13;52113.84;5038285;28;20170;-77
2022/10/04 11:15:46;;;;;;;;;;;;;;;-144.99;41.31;52136.25;5043736;28;20246;-76
2022/10/04 11:18:27;;;;;;;;;;;;;;;-144.99;40.50;52138.28;5032440;28;20346;-77
2022/10/04 11:21:12;;;;;;;;;;;;;;;-144.99;39.86;52097.53;5042634;28;19924;-77
2022/10/04 11:24:12;;;;;;;;;;;;;;;-144.99;40.91;52268.72;5053773;28;19939;-76
2022/10/04 11:26:56;;;;;;;;;;;;;;;-144.99;42.94;52244.28;5053281;28;19937;-76
2022/10/04 11:29:28;;;;;;;;;;;;;;;-144.99;45.29;52154.59;5054106;28;20430;-77
2022/10/04 11:32:04;;;;;;;;;;;;;;;-144.99;43.04;52134.22;5036708;28;19935;-77
2022/10/04 11:34:49;;;;;;;;;;;;;;;-144.99;42.10;52146.44;5032400;28;19936;-77
2022/10/04 11:37:18;;;;;;;;;;;;;;;-144.99;41.36;52093.44;5045767;28;19925;-79
2022/10/04 11:40:09;;;;;;;;;;;;;;;-144.99;40.96;52313.56;5038001;28;19936;-78
2022/10/04 11:42:47;;;;;;;;;;;;;;;-144.99;41.31;52109.75;5035170;28;20450;-79
2022/10/04 11:45:20;;;;;;;;;;;;;;;-144.99;41.09;52134.22;5042103;28;19933;-78
2022/10/04 11:47:54;;;;;;;;;;;;;;;-144.99;40.44;52077.16;5034148;28;19936;-76
2022/10/04 11:50:25;;;;;;;;;;;;;;;-144.99;40.69;52109.75;5033415;28;20720;-76
2022/10/04 11:53:02;;;;;;;;;;;;;;;-144.99;40.45;52115.88;5035732;28;19929;-77
2022/10/04 11:55:47;;;;;;;;;;;;;;;-144.99;40.30;52121.97;5035220;28;19936;-77
2022/10/04 11:58:18;;;;;;;;;;;;;;;-144.99;39.77;52126.06;5044576;28;19929;-79
2022/10/04 12:00:54;;;;;;;;;;;;;;;-144.99;39.18;52073.06;5035868;28;20015;-76
2022/10/04 12:03:35;;;;;;;;;;;;;;;-144.99;40.37;52187.19;5034113;28;19925;-76
2022/10/04 12:06:21;;;;;;;;;;;;;;;-144.99;40.92;52142.38;5034064;28;20431;-75
2022/10/04 12:09:04;;;;;;;;;;;;;;;-144.99;39.66;52081.22;5018852;28;19948;-77
2022/10/04 12:14:42;;;;;;;;;;;;;;;-144.99;39.60;52142.38;5033215;28;20048;-75
2022/10/04 12:17:24;;;;;;;;;;;;;;;-144.99;39.79;52113.84;5036086;28;20633;-76
2022/10/04 12:20:15;;;;;;;;;;;;;;;-144.99;39.04;52101.59;5050692;28;19952;-76
2022/10/04 12:22:59;;;;;;;;;;;;;;;-144.99;38.68;52126.06;5048471;28;19913;-76
2022/10/04 12:25:46;;;;;;;;;;;;;;;-144.99;38.34;52117.91;5030130;28;19929;-77
2022/10/04 12:28:27;;;;;;;;;;;;;;;-144.99;38.04;52064.91;5034041;28;20300;-77
2022/10/04 12:31:07;;;;;;;;;;;;;;;-144.99;37.67;52046.56;5037207;28;19925;-76
2022/10/04 12:33:37;;;;;;;;;;;;;;;-144.99;37.82;52083.25;5047172;28;19948;-80
2022/10/04 12:36:12;;;;;;;;;;;;;;;-144.99;38.60;52103.66;5048003;28;19925;-81
2022/10/04 12:38:45;;;;;;;;;;;;;;;-144.99;38.93;52121.97;5053594;28;19935;-79
2022/10/04 12:41:20;;;;;;;;;;;;;;;-144.99;39.37;52130.13;5053360;28;19913;-79
2022/10/04 12:43:55;;;;;;;;;;;;;;;-144.99;39.51;52199.44;5049868;28;19935;-76
2022/10/04 12:46:30;;;;;;;;;;;;;;;-144.99;39.83;52146.44;5046219;28;19933;-76
2022/10/04 12:49:03;;;;;;;;;;;;;;;-144.99;40.12;52134.22;5041357;28;20408;-79
2022/10/04 12:51:36;;;;;;;;;;;;;;;-144.99;38.94;52089.38;5037758;28;20008;-77
2022/10/04 12:54:10;;;;;;;;;;;;;;;-144.99;37.87;52048.63;5030498;28;19932;-77
2022/10/04 12:56:45;;;;;;;;;;;;;;;-144.99;37.67;52146.44;5033859;28;19933;-76
2022/10/04 12:59:19;;;;;;;;;;;;;;;-144.99;38.55;52132.19;5021804;28;19986;-76
2022/10/04 13:01:51;;;;;;;;;;;;;;;-144.99;39.28;52183.13;5027476;28;19929;-75
2022/10/04 13:04:21;;;;;;;;;;;;;;;-144.99;40.42;52199.44;5036094;28;19968;-76